sensor_id;sensor_type;location;lat;lon;timestamp;P1;durP1;ratioP1;P2;durP2;ratioP2
72761;SDS011;60886;55.034;73.150;2023-02-02T00:02:03;24.27;;;8.43;;
72761;SDS011;60886;55.034;73.150;2023-02-02T00:05:04;19.87;;;8.87;;
72761;SDS011;60886;55.034;73.150;2023-02-02T00:08:19;17.02;;;7.93;;
72761;SDS011;60886;55.034;73.150;2023-02-02T00:11:26;21.42;;;9.70;;
72761;SDS011;60886;55.034;73.150;2023-02-02T00:14:30;26.07;;;8.63;;
72761;SDS011;60886;55.034;73.150;2023-02-02T00:17:32;21.15;;;9.50;;
72761;SDS011;60886;55.034;73.150;2023-02-02T00:20:44;18.93;;;7.10;;
72761;SDS011;60886;55.034;73.150;2023-02-02T00:23:49;22.07;;;8.87;;
72761;SDS011;60886;55.034;73.150;2023-02-02T00:26:54;26.17;;;10.73;;
72761;SDS011;60886;55.034;73.150;2023-02-02T00:29:56;23.53;;;10.17;;
72761;SDS011;60886;55.034;73.150;2023-02-02T00:32:58;30.80;;;10.43;;
72761;SDS011;60886;55.034;73.150;2023-02-02T00:35:59;35.85;;;13.07;;
72761;SDS011;60886;55.034;73.150;2023-02-02T00:39:02;32.90;;;13.45;;
72761;SDS011;60886;55.034;73.150;2023-02-02T00:42:04;27.00;;;11.65;;
72761;SDS011;60886;55.034;73.150;2023-02-02T00:45:05;34.03;;;10.63;;
72761;SDS011;60886;55.034;73.150;2023-02-02T00:48:16;32.97;;;11.13;;
72761;SDS011;60886;55.034;73.150;2023-02-02T00:51:18;34.27;;;11.80;;
72761;SDS011;60886;55.034;73.150;2023-02-02T00:54:25;33.70;;;10.43;;
72761;SDS011;60886;55.034;73.150;2023-02-02T00:57:39;26.83;;;9.98;;
72761;SDS011;60886;55.034;73.150;2023-02-02T01:00:41;36.45;;;11.40;;
72761;SDS011;60886;55.034;73.150;2023-02-02T01:03:53;18.03;;;8.77;;
72761;SDS011;60886;55.034;73.150;2023-02-02T01:06:56;23.17;;;9.05;;
72761;SDS011;60886;55.034;73.150;2023-02-02T01:10:07;30.97;;;10.70;;
72761;SDS011;60886;55.034;73.150;2023-02-02T01:13:13;37.08;;;13.10;;
72761;SDS011;60886;55.034;73.150;2023-02-02T01:16:19;37.27;;;12.10;;
72761;SDS011;60886;55.034;73.150;2023-02-02T01:19:53;23.17;;;10.43;;
72761;SDS011;60886;55.034;73.150;2023-02-02T01:22:59;34.80;;;12.32;;
72761;SDS011;60886;55.034;73.150;2023-02-02T01:26:01;33.67;;;11.73;;
72761;SDS011;60886;55.034;73.150;2023-02-02T01:29:06;35.20;;;13.50;;
72761;SDS011;60886;55.034;73.150;2023-02-02T01:32:08;44.63;;;14.63;;
72761;SDS011;60886;55.034;73.150;2023-02-02T01:35:15;27.93;;;10.73;;
72761;SDS011;60886;55.034;73.150;2023-02-02T01:38:27;30.80;;;11.18;;
72761;SDS011;60886;55.034;73.150;2023-02-02T01:41:39;23.53;;;7.67;;
72761;SDS011;60886;55.034;73.150;2023-02-02T01:48:40;32.25;;;9.43;;
72761;SDS011;60886;55.034;73.150;2023-02-02T01:51:55;24.27;;;9.40;;
72761;SDS011;60886;55.034;73.150;2023-02-02T01:55:00;26.83;;;9.68;;
72761;SDS011;60886;55.034;73.150;2023-02-02T01:58:11;23.57;;;8.23;;
72761;SDS011;60886;55.034;73.150;2023-02-02T02:01:24;22.27;;;9.00;;
72761;SDS011;60886;55.034;73.150;2023-02-02T02:04:37;30.27;;;12.32;;
72761;SDS011;60886;55.034;73.150;2023-02-02T02:07:42;32.13;;;10.47;;
72761;SDS011;60886;55.034;73.150;2023-02-02T02:10:45;27.17;;;11.23;;
72761;SDS011;60886;55.034;73.150;2023-02-02T02:13:47;29.27;;;11.23;;
72761;SDS011;60886;55.034;73.150;2023-02-02T02:36:08;20.57;;;9.30;;
72761;SDS011;60886;55.034;73.150;2023-02-02T02:43:00;29.98;;;11.55;;
72761;SDS011;60886;55.034;73.150;2023-02-02T02:46:12;30.10;;;11.60;;
72761;SDS011;60886;55.034;73.150;2023-02-02T02:49:24;26.37;;;10.63;;
72761;SDS011;60886;55.034;73.150;2023-02-02T02:52:25;42.88;;;16.92;;
72761;SDS011;60886;55.034;73.150;2023-02-02T02:55:30;37.33;;;14.35;;
72761;SDS011;60886;55.034;73.150;2023-02-02T03:02:03;34.83;;;13.48;;
72761;SDS011;60886;55.034;73.150;2023-02-02T03:11:59;31.48;;;11.30;;
72761;SDS011;60886;55.034;73.150;2023-02-02T03:15:03;23.27;;;9.63;;
72761;SDS011;60886;55.034;73.150;2023-02-02T03:18:16;27.30;;;13.93;;
72761;SDS011;60886;55.034;73.150;2023-02-02T03:21:30;28.30;;;10.82;;
72761;SDS011;60886;55.034;73.150;2023-02-02T03:24:32;33.83;;;11.27;;
72761;SDS011;60886;55.034;73.150;2023-02-02T03:27:34;22.15;;;9.60;;
72761;SDS011;60886;55.034;73.150;2023-02-02T03:30:39;30.97;;;11.53;;
72761;SDS011;60886;55.034;73.150;2023-02-02T03:33:50;18.77;;;7.82;;
72761;SDS011;60886;55.034;73.150;2023-02-02T03:36:53;24.40;;;10.75;;
72761;SDS011;60886;55.034;73.150;2023-02-02T03:39:55;19.67;;;6.82;;
72761;SDS011;60886;55.034;73.150;2023-02-02T03:43:01;22.47;;;9.13;;
72761;SDS011;60886;55.034;73.150;2023-02-02T03:46:03;34.55;;;10.85;;
72761;SDS011;60886;55.034;73.150;2023-02-02T03:49:05;26.03;;;8.03;;
72761;SDS011;60886;55.034;73.150;2023-02-02T03:52:12;26.23;;;10.63;;
72761;SDS011;60886;55.034;73.150;2023-02-02T03:55:13;26.47;;;10.53;;
72761;SDS011;60886;55.034;73.150;2023-02-02T03:58:26;28.50;;;9.47;;
72761;SDS011;60886;55.034;73.150;2023-02-02T04:01:30;28.58;;;12.18;;
72761;SDS011;60886;55.034;73.150;2023-02-02T04:04:35;27.77;;;10.37;;
72761;SDS011;60886;55.034;73.150;2023-02-02T04:07:47;29.17;;;11.65;;
72761;SDS011;60886;55.034;73.150;2023-02-02T04:10:54;27.80;;;11.55;;
72761;SDS011;60886;55.034;73.150;2023-02-02T04:13:55;28.50;;;9.90;;
72761;SDS011;60886;55.034;73.150;2023-02-02T04:16:57;28.27;;;11.43;;
72761;SDS011;60886;55.034;73.150;2023-02-02T04:19:58;27.67;;;12.17;;
72761;SDS011;60886;55.034;73.150;2023-02-02T04:23:10;37.72;;;11.18;;
72761;SDS011;60886;55.034;73.150;2023-02-02T04:26:17;41.70;;;12.25;;
72761;SDS011;60886;55.034;73.150;2023-02-02T04:29:19;41.90;;;14.00;;
72761;SDS011;60886;55.034;73.150;2023-02-02T04:32:20;45.20;;;14.63;;
72761;SDS011;60886;55.034;73.150;2023-02-02T04:35:32;42.27;;;14.93;;
72761;SDS011;60886;55.034;73.150;2023-02-02T04:38:47;48.00;;;13.30;;
72761;SDS011;60886;55.034;73.150;2023-02-02T04:41:54;39.53;;;15.43;;
72761;SDS011;60886;55.034;73.150;2023-02-02T04:45:06;58.80;;;20.73;;
72761;SDS011;60886;55.034;73.150;2023-02-02T04:48:14;39.97;;;14.40;;
72761;SDS011;60886;55.034;73.150;2023-02-02T04:51:17;47.17;;;15.30;;
72761;SDS011;60886;55.034;73.150;2023-02-02T04:54:28;40.70;;;12.63;;
72761;SDS011;60886;55.034;73.150;2023-02-02T04:57:36;36.72;;;14.10;;
72761;SDS011;60886;55.034;73.150;2023-02-02T05:00:47;34.40;;;12.77;;
72761;SDS011;60886;55.034;73.150;2023-02-02T05:03:48;34.47;;;13.35;;
72761;SDS011;60886;55.034;73.150;2023-02-02T05:06:50;30.13;;;13.10;;
72761;SDS011;60886;55.034;73.150;2023-02-02T05:09:52;29.33;;;11.27;;
72761;SDS011;60886;55.034;73.150;2023-02-02T05:12:59;35.35;;;13.57;;
72761;SDS011;60886;55.034;73.150;2023-02-02T05:16:06;31.10;;;12.37;;
72761;SDS011;60886;55.034;73.150;2023-02-02T05:19:08;36.67;;;13.88;;
72761;SDS011;60886;55.034;73.150;2023-02-02T05:22:16;39.05;;;14.27;;
72761;SDS011;60886;55.034;73.150;2023-02-02T05:25:17;39.97;;;13.77;;
72761;SDS011;60886;55.034;73.150;2023-02-02T05:28:24;36.03;;;13.77;;
72761;SDS011;60886;55.034;73.150;2023-02-02T05:31:32;36.60;;;13.88;;
72761;SDS011;60886;55.034;73.150;2023-02-02T05:34:44;33.57;;;14.33;;
72761;SDS011;60886;55.034;73.150;2023-02-02T05:37:52;42.03;;;16.27;;
72761;SDS011;60886;55.034;73.150;2023-02-02T05:41:03;39.85;;;13.40;;
72761;SDS011;60886;55.034;73.150;2023-02-02T05:44:15;56.97;;;19.47;;
72761;SDS011;60886;55.034;73.150;2023-02-02T05:47:18;42.88;;;16.25;;
72761;SDS011;60886;55.034;73.150;2023-02-02T05:50:25;63.43;;;21.57;;
72761;SDS011;60886;55.034;73.150;2023-02-02T05:53:39;49.00;;;19.30;;
72761;SDS011;60886;55.034;73.150;2023-02-02T05:56:51;54.25;;;19.98;;
72761;SDS011;60886;55.034;73.150;2023-02-02T05:59:57;43.72;;;17.25;;
72761;SDS011;60886;55.034;73.150;2023-02-02T06:02:58;51.45;;;19.00;;
72761;SDS011;60886;55.034;73.150;2023-02-02T06:06:10;50.42;;;18.08;;
72761;SDS011;60886;55.034;73.150;2023-02-02T06:09:22;51.30;;;18.37;;
72761;SDS011;60886;55.034;73.150;2023-02-02T06:12:25;39.50;;;16.05;;
72761;SDS011;60886;55.034;73.150;2023-02-02T06:15:30;62.53;;;20.37;;
72761;SDS011;60886;55.034;73.150;2023-02-02T06:18:43;43.13;;;17.70;;
72761;SDS011;60886;55.034;73.150;2023-02-02T06:21:51;55.72;;;19.92;;
72761;SDS011;60886;55.034;73.150;2023-02-02T06:24:53;41.60;;;16.17;;
72761;SDS011;60886;55.034;73.150;2023-02-02T06:27:55;39.08;;;18.05;;
72761;SDS011;60886;55.034;73.150;2023-02-02T06:31:08;50.85;;;17.88;;
72761;SDS011;60886;55.034;73.150;2023-02-02T06:34:20;59.03;;;20.03;;
72761;SDS011;60886;55.034;73.150;2023-02-02T06:37:24;56.10;;;19.80;;
72761;SDS011;60886;55.034;73.150;2023-02-02T06:40:27;49.37;;;19.00;;
72761;SDS011;60886;55.034;73.150;2023-02-02T06:43:29;61.35;;;21.02;;
72761;SDS011;60886;55.034;73.150;2023-02-02T06:46:30;53.00;;;21.73;;
72761;SDS011;60886;55.034;73.150;2023-02-02T06:49:34;51.00;;;21.00;;
72761;SDS011;60886;55.034;73.150;2023-02-02T06:52:36;36.33;;;13.95;;
72761;SDS011;60886;55.034;73.150;2023-02-02T06:55:39;35.05;;;12.95;;
72761;SDS011;60886;55.034;73.150;2023-02-02T06:58:42;34.26;;;12.40;;
72761;SDS011;60886;55.034;73.150;2023-02-02T07:01:56;34.13;;;13.65;;
72761;SDS011;60886;55.034;73.150;2023-02-02T07:04:57;37.63;;;12.07;;
72761;SDS011;60886;55.034;73.150;2023-02-02T07:07:59;35.15;;;12.98;;
72761;SDS011;60886;55.034;73.150;2023-02-02T07:11:00;26.23;;;12.00;;
72761;SDS011;60886;55.034;73.150;2023-02-02T07:14:03;32.97;;;12.27;;
72761;SDS011;60886;55.034;73.150;2023-02-02T07:17:05;36.42;;;12.20;;
72761;SDS011;60886;55.034;73.150;2023-02-02T07:20:13;32.20;;;11.63;;
72761;SDS011;60886;55.034;73.150;2023-02-02T07:23:14;28.27;;;10.73;;
72761;SDS011;60886;55.034;73.150;2023-02-02T07:26:17;31.70;;;12.57;;
72761;SDS011;60886;55.034;73.150;2023-02-02T07:29:20;25.80;;;10.98;;
72761;SDS011;60886;55.034;73.150;2023-02-02T07:32:21;32.90;;;10.63;;
72761;SDS011;60886;55.034;73.150;2023-02-02T07:35:23;35.42;;;11.65;;
72761;SDS011;60886;55.034;73.150;2023-02-02T07:38:24;36.47;;;11.10;;
72761;SDS011;60886;55.034;73.150;2023-02-02T07:41:26;32.85;;;12.77;;
72761;SDS011;60886;55.034;73.150;2023-02-02T07:44:38;32.10;;;11.17;;
72761;SDS011;60886;55.034;73.150;2023-02-02T07:47:45;33.85;;;13.25;;
72761;SDS011;60886;55.034;73.150;2023-02-02T07:51:00;51.70;;;15.53;;
72761;SDS011;60886;55.034;73.150;2023-02-02T07:54:08;35.17;;;11.90;;
72761;SDS011;60886;55.034;73.150;2023-02-02T07:57:10;35.10;;;13.52;;
72761;SDS011;60886;55.034;73.150;2023-02-02T08:00:13;35.03;;;11.80;;
72761;SDS011;60886;55.034;73.150;2023-02-02T08:03:15;24.00;;;10.30;;
72761;SDS011;60886;55.034;73.150;2023-02-02T08:06:21;27.75;;;10.68;;
72761;SDS011;60886;55.034;73.150;2023-02-02T08:09:26;23.33;;;9.20;;
72761;SDS011;60886;55.034;73.150;2023-02-02T08:12:29;24.08;;;9.10;;
72761;SDS011;60886;55.034;73.150;2023-02-02T08:15:31;21.00;;;8.20;;
72761;SDS011;60886;55.034;73.150;2023-02-02T08:18:39;23.72;;;7.47;;
72761;SDS011;60886;55.034;73.150;2023-02-02T08:21:42;24.88;;;7.75;;
72761;SDS011;60886;55.034;73.150;2023-02-02T08:24:45;22.00;;;7.23;;
72761;SDS011;60886;55.034;73.150;2023-02-02T08:27:56;21.07;;;8.20;;
72761;SDS011;60886;55.034;73.150;2023-02-02T08:31:03;24.25;;;8.10;;
72761;SDS011;60886;55.034;73.150;2023-02-02T08:34:06;20.97;;;8.53;;
72761;SDS011;60886;55.034;73.150;2023-02-02T08:37:07;32.25;;;12.85;;
72761;SDS011;60886;55.034;73.150;2023-02-02T08:40:09;34.40;;;12.27;;
72761;SDS011;60886;55.034;73.150;2023-02-02T08:43:11;35.97;;;10.95;;
72761;SDS011;60886;55.034;73.150;2023-02-02T08:46:14;26.35;;;9.07;;
72761;SDS011;60886;55.034;73.150;2023-02-02T08:49:17;26.33;;;8.70;;
72761;SDS011;60886;55.034;73.150;2023-02-02T08:52:24;25.83;;;8.43;;
72761;SDS011;60886;55.034;73.150;2023-02-02T08:55:25;24.92;;;9.45;;
72761;SDS011;60886;55.034;73.150;2023-02-02T08:58:27;34.05;;;13.43;;
72761;SDS011;60886;55.034;73.150;2023-02-02T09:01:32;38.17;;;14.60;;
72761;SDS011;60886;55.034;73.150;2023-02-02T09:04:35;27.38;;;10.40;;
72761;SDS011;60886;55.034;73.150;2023-02-02T09:07:38;26.35;;;9.35;;
72761;SDS011;60886;55.034;73.150;2023-02-02T09:10:39;26.92;;;8.98;;
72761;SDS011;60886;55.034;73.150;2023-02-02T09:13:47;22.90;;;7.70;;
72761;SDS011;60886;55.034;73.150;2023-02-02T09:16:56;21.00;;;8.45;;
72761;SDS011;60886;55.034;73.150;2023-02-02T09:20:00;25.63;;;8.80;;
72761;SDS011;60886;55.034;73.150;2023-02-02T09:23:05;25.07;;;8.13;;
72761;SDS011;60886;55.034;73.150;2023-02-02T09:26:27;24.50;;;8.93;;
72761;SDS011;60886;55.034;73.150;2023-02-02T09:29:33;26.20;;;9.30;;
72761;SDS011;60886;55.034;73.150;2023-02-02T09:32:35;26.43;;;8.53;;
72761;SDS011;60886;55.034;73.150;2023-02-02T09:35:45;20.23;;;7.65;;
72761;SDS011;60886;55.034;73.150;2023-02-02T09:38:52;27.03;;;7.87;;
72761;SDS011;60886;55.034;73.150;2023-02-02T09:48:49;25.38;;;8.68;;
72761;SDS011;60886;55.034;73.150;2023-02-02T09:51:58;30.75;;;9.40;;
72761;SDS011;60886;55.034;73.150;2023-02-02T09:55:32;25.30;;;9.35;;
72761;SDS011;60886;55.034;73.150;2023-02-02T09:58:47;26.10;;;9.85;;
72761;SDS011;60886;55.034;73.150;2023-02-02T10:02:09;21.13;;;6.93;;
72761;SDS011;60886;55.034;73.150;2023-02-02T10:05:27;22.52;;;9.05;;
72761;SDS011;60886;55.034;73.150;2023-02-02T10:08:43;29.10;;;14.05;;
72761;SDS011;60886;55.034;73.150;2023-02-02T10:18:58;23.40;;;8.77;;
72761;SDS011;60886;55.034;73.150;2023-02-02T10:22:08;29.40;;;8.45;;
72761;SDS011;60886;55.034;73.150;2023-02-02T10:25:16;19.67;;;8.57;;
72761;SDS011;60886;55.034;73.150;2023-02-02T10:28:18;22.73;;;9.18;;
72761;SDS011;60886;55.034;73.150;2023-02-02T10:34:59;28.33;;;9.57;;
72761;SDS011;60886;55.034;73.150;2023-02-02T10:38:27;26.37;;;11.07;;
72761;SDS011;60886;55.034;73.150;2023-02-02T10:44:58;37.38;;;12.85;;
72761;SDS011;60886;55.034;73.150;2023-02-02T10:48:17;32.80;;;11.80;;
72761;SDS011;60886;55.034;73.150;2023-02-02T10:51:28;43.33;;;13.83;;
72761;SDS011;60886;55.034;73.150;2023-02-02T10:54:49;42.95;;;14.02;;
72761;SDS011;60886;55.034;73.150;2023-02-02T11:01:09;43.13;;;15.40;;
72761;SDS011;60886;55.034;73.150;2023-02-02T11:04:17;40.97;;;14.23;;
72761;SDS011;60886;55.034;73.150;2023-02-02T11:07:40;41.57;;;14.37;;
72761;SDS011;60886;55.034;73.150;2023-02-02T11:10:45;47.88;;;14.85;;
72761;SDS011;60886;55.034;73.150;2023-02-02T11:17:10;50.80;;;17.60;;
72761;SDS011;60886;55.034;73.150;2023-02-02T11:20:33;38.23;;;16.13;;
72761;SDS011;60886;55.034;73.150;2023-02-02T11:23:38;39.67;;;14.82;;
72761;SDS011;60886;55.034;73.150;2023-02-02T11:26:42;48.97;;;15.73;;
72761;SDS011;60886;55.034;73.150;2023-02-02T11:29:59;43.38;;;15.35;;
72761;SDS011;60886;55.034;73.150;2023-02-02T11:33:29;46.55;;;16.10;;
72761;SDS011;60886;55.034;73.150;2023-02-02T11:36:35;38.20;;;14.80;;
72761;SDS011;60886;55.034;73.150;2023-02-02T11:39:38;50.58;;;16.75;;
72761;SDS011;60886;55.034;73.150;2023-02-02T11:42:44;31.25;;;12.98;;
72761;SDS011;60886;55.034;73.150;2023-02-02T11:45:53;41.60;;;15.53;;
72761;SDS011;60886;55.034;73.150;2023-02-02T11:49:05;40.73;;;14.70;;
72761;SDS011;60886;55.034;73.150;2023-02-02T11:52:14;39.95;;;13.25;;
72761;SDS011;60886;55.034;73.150;2023-02-02T11:55:32;37.58;;;14.48;;
72761;SDS011;60886;55.034;73.150;2023-02-02T11:58:43;51.40;;;16.80;;
72761;SDS011;60886;55.034;73.150;2023-02-02T12:01:49;50.90;;;17.58;;
72761;SDS011;60886;55.034;73.150;2023-02-02T12:04:52;51.17;;;16.40;;
72761;SDS011;60886;55.034;73.150;2023-02-02T12:08:14;38.73;;;14.10;;
72761;SDS011;60886;55.034;73.150;2023-02-02T12:11:20;47.87;;;15.50;;
72761;SDS011;60886;55.034;73.150;2023-02-02T12:14:58;31.70;;;13.07;;
72761;SDS011;60886;55.034;73.150;2023-02-02T12:29:10;41.95;;;14.77;;
72761;SDS011;60886;55.034;73.150;2023-02-02T12:32:40;42.53;;;15.43;;
72761;SDS011;60886;55.034;73.150;2023-02-02T13:02:41;27.17;;;10.57;;
72761;SDS011;60886;55.034;73.150;2023-02-02T13:05:58;32.05;;;11.13;;
72761;SDS011;60886;55.034;73.150;2023-02-02T13:09:14;37.43;;;13.50;;
72761;SDS011;60886;55.034;73.150;2023-02-02T13:12:23;33.08;;;13.13;;
72761;SDS011;60886;55.034;73.150;2023-02-02T13:15:35;41.73;;;14.70;;
72761;SDS011;60886;55.034;73.150;2023-02-02T13:18:50;42.17;;;14.57;;
72761;SDS011;60886;55.034;73.150;2023-02-02T13:22:02;39.17;;;15.05;;
72761;SDS011;60886;55.034;73.150;2023-02-02T13:25:08;50.50;;;17.75;;
72761;SDS011;60886;55.034;73.150;2023-02-02T13:28:18;39.45;;;15.85;;
72761;SDS011;60886;55.034;73.150;2023-02-02T13:34:54;44.50;;;15.80;;
72761;SDS011;60886;55.034;73.150;2023-02-02T13:38:16;46.88;;;15.38;;
72761;SDS011;60886;55.034;73.150;2023-02-02T13:41:24;58.40;;;17.80;;
72761;SDS011;60886;55.034;73.150;2023-02-02T13:44:30;42.67;;;15.87;;
72761;SDS011;60886;55.034;73.150;2023-02-02T13:47:41;38.40;;;14.57;;
72761;SDS011;60886;55.034;73.150;2023-02-02T13:51:01;36.78;;;14.60;;
72761;SDS011;60886;55.034;73.150;2023-02-02T14:01:30;38.75;;;15.80;;
72761;SDS011;60886;55.034;73.150;2023-02-02T14:04:42;40.43;;;15.33;;
72761;SDS011;60886;55.034;73.150;2023-02-02T14:08:30;36.63;;;14.55;;
72761;SDS011;60886;55.034;73.150;2023-02-02T14:11:36;36.80;;;15.40;;
72761;SDS011;60886;55.034;73.150;2023-02-02T14:14:44;43.07;;;15.80;;
72761;SDS011;60886;55.034;73.150;2023-02-02T14:17:48;54.00;;;17.83;;
72761;SDS011;60886;55.034;73.150;2023-02-02T14:20:56;52.55;;;17.52;;
72761;SDS011;60886;55.034;73.150;2023-02-02T14:30:41;69.45;;;21.65;;
72761;SDS011;60886;55.034;73.150;2023-02-02T14:33:47;54.07;;;20.93;;
72761;SDS011;60886;55.034;73.150;2023-02-02T14:43:46;61.74;;;23.80;;
72761;SDS011;60886;55.034;73.150;2023-02-02T14:46:59;71.55;;;24.88;;
72761;SDS011;60886;55.034;73.150;2023-02-02T14:50:10;79.95;;;26.25;;
72761;SDS011;60886;55.034;73.150;2023-02-02T14:53:28;58.28;;;22.42;;
72761;SDS011;60886;55.034;73.150;2023-02-02T14:59:49;54.45;;;18.63;;
72761;SDS011;60886;55.034;73.150;2023-02-02T15:06:37;51.28;;;19.60;;
72761;SDS011;60886;55.034;73.150;2023-02-02T15:09:45;43.88;;;18.05;;
72761;SDS011;60886;55.034;73.150;2023-02-02T15:12:47;48.17;;;17.60;;
72761;SDS011;60886;55.034;73.150;2023-02-02T15:16:20;43.87;;;15.87;;
72761;SDS011;60886;55.034;73.150;2023-02-02T15:19:33;45.17;;;14.63;;
72761;SDS011;60886;55.034;73.150;2023-02-02T15:22:44;67.93;;;20.95;;
72761;SDS011;60886;55.034;73.150;2023-02-02T15:25:50;44.73;;;14.87;;
72761;SDS011;60886;55.034;73.150;2023-02-02T15:35:48;42.88;;;14.68;;
72761;SDS011;60886;55.034;73.150;2023-02-02T15:39:08;56.33;;;21.10;;
72761;SDS011;60886;55.034;73.150;2023-02-02T15:42:25;67.00;;;25.70;;
72761;SDS011;60886;55.034;73.150;2023-02-02T15:46:02;70.70;;;28.33;;
72761;SDS011;60886;55.034;73.150;2023-02-02T15:49:47;64.15;;;23.02;;
72761;SDS011;60886;55.034;73.150;2023-02-02T15:52:51;62.42;;;24.27;;
72761;SDS011;60886;55.034;73.150;2023-02-02T15:56:09;57.47;;;23.47;;
72761;SDS011;60886;55.034;73.150;2023-02-02T15:59:59;75.00;;;26.07;;
72761;SDS011;60886;55.034;73.150;2023-02-02T16:03:51;67.55;;;25.58;;
72761;SDS011;60886;55.034;73.150;2023-02-02T16:06:54;50.72;;;16.58;;
72761;SDS011;60886;55.034;73.150;2023-02-02T16:14:26;41.53;;;15.15;;
72761;SDS011;60886;55.034;73.150;2023-02-02T16:17:45;54.85;;;17.13;;
72761;SDS011;60886;55.034;73.150;2023-02-02T16:20:59;44.33;;;17.13;;
72761;SDS011;60886;55.034;73.150;2023-02-02T16:28:19;36.88;;;13.75;;
72761;SDS011;60886;55.034;73.150;2023-02-02T16:31:30;44.77;;;17.60;;
72761;SDS011;60886;55.034;73.150;2023-02-02T16:38:48;30.60;;;12.33;;
72761;SDS011;60886;55.034;73.150;2023-02-02T16:41:52;45.20;;;14.85;;
72761;SDS011;60886;55.034;73.150;2023-02-02T16:45:06;35.60;;;14.77;;
72761;SDS011;60886;55.034;73.150;2023-02-02T16:49:02;29.13;;;13.43;;
72761;SDS011;60886;55.034;73.150;2023-02-02T16:52:16;41.20;;;13.57;;
72761;SDS011;60886;55.034;73.150;2023-02-02T16:55:24;22.43;;;8.07;;
72761;SDS011;60886;55.034;73.150;2023-02-02T16:58:39;46.05;;;14.65;;
72761;SDS011;60886;55.034;73.150;2023-02-02T17:01:55;33.17;;;12.80;;
72761;SDS011;60886;55.034;73.150;2023-02-02T17:05:06;38.88;;;14.75;;
72761;SDS011;60886;55.034;73.150;2023-02-02T17:08:26;41.13;;;13.25;;
72761;SDS011;60886;55.034;73.150;2023-02-02T17:11:31;33.80;;;12.77;;
72761;SDS011;60886;55.034;73.150;2023-02-02T17:14:34;35.63;;;14.33;;
72761;SDS011;60886;55.034;73.150;2023-02-02T17:17:44;41.92;;;16.02;;
72761;SDS011;60886;55.034;73.150;2023-02-02T17:20:53;46.33;;;15.37;;
72761;SDS011;60886;55.034;73.150;2023-02-02T17:23:57;31.90;;;12.05;;
72761;SDS011;60886;55.034;73.150;2023-02-02T17:26:58;36.22;;;14.85;;
72761;SDS011;60886;55.034;73.150;2023-02-02T17:30:00;51.23;;;17.03;;
72761;SDS011;60886;55.034;73.150;2023-02-02T17:33:12;49.33;;;14.80;;
72761;SDS011;60886;55.034;73.150;2023-02-02T17:36:25;50.72;;;15.25;;
72761;SDS011;60886;55.034;73.150;2023-02-02T17:39:26;47.10;;;16.63;;
72761;SDS011;60886;55.034;73.150;2023-02-02T17:42:28;48.00;;;16.35;;
72761;SDS011;60886;55.034;73.150;2023-02-02T17:45:38;39.30;;;16.83;;
72761;SDS011;60886;55.034;73.150;2023-02-02T17:48:52;45.97;;;15.53;;
72761;SDS011;60886;55.034;73.150;2023-02-02T17:51:59;54.40;;;15.03;;
72761;SDS011;60886;55.034;73.150;2023-02-02T17:55:03;49.75;;;19.58;;
72761;SDS011;60886;55.034;73.150;2023-02-02T17:58:13;51.65;;;18.33;;
72761;SDS011;60886;55.034;73.150;2023-02-02T18:01:17;55.78;;;19.48;;
72761;SDS011;60886;55.034;73.150;2023-02-02T18:04:21;82.47;;;26.30;;
72761;SDS011;60886;55.034;73.150;2023-02-02T18:07:24;78.27;;;23.63;;
72761;SDS011;60886;55.034;73.150;2023-02-02T18:10:30;73.30;;;22.60;;
72761;SDS011;60886;55.034;73.150;2023-02-02T18:13:41;63.13;;;22.65;;
72761;SDS011;60886;55.034;73.150;2023-02-02T18:16:44;72.53;;;23.45;;
72761;SDS011;60886;55.034;73.150;2023-02-02T18:19:46;63.40;;;20.60;;
72761;SDS011;60886;55.034;73.150;2023-02-02T18:22:50;57.00;;;18.98;;
72761;SDS011;60886;55.034;73.150;2023-02-02T18:25:52;62.28;;;20.33;;
72761;SDS011;60886;55.034;73.150;2023-02-02T18:28:54;78.40;;;24.47;;
72761;SDS011;60886;55.034;73.150;2023-02-02T18:32:05;71.40;;;23.30;;
72761;SDS011;60886;55.034;73.150;2023-02-02T18:35:07;68.17;;;23.33;;
72761;SDS011;60886;55.034;73.150;2023-02-02T18:38:11;63.13;;;22.07;;
72761;SDS011;60886;55.034;73.150;2023-02-02T18:41:14;71.70;;;22.92;;
72761;SDS011;60886;55.034;73.150;2023-02-02T18:44:24;69.20;;;22.67;;
72761;SDS011;60886;55.034;73.150;2023-02-02T18:47:26;68.67;;;23.40;;
72761;SDS011;60886;55.034;73.150;2023-02-02T18:50:29;65.93;;;23.88;;
72761;SDS011;60886;55.034;73.150;2023-02-02T18:53:38;66.41;;;21.57;;
72761;SDS011;60886;55.034;73.150;2023-02-02T18:56:43;76.88;;;23.23;;
72761;SDS011;60886;55.034;73.150;2023-02-02T18:59:54;45.33;;;14.43;;
72761;SDS011;60886;55.034;73.150;2023-02-02T19:02:56;58.40;;;19.63;;
72761;SDS011;60886;55.034;73.150;2023-02-02T19:05:57;58.80;;;18.13;;
72761;SDS011;60886;55.034;73.150;2023-02-02T19:09:17;65.63;;;19.37;;
72761;SDS011;60886;55.034;73.150;2023-02-02T19:12:22;42.58;;;18.70;;
72761;SDS011;60886;55.034;73.150;2023-02-02T19:15:28;52.13;;;17.30;;
72761;SDS011;60886;55.034;73.150;2023-02-02T19:18:38;48.15;;;17.38;;
72761;SDS011;60886;55.034;73.150;2023-02-02T19:21:44;57.75;;;19.60;;
72761;SDS011;60886;55.034;73.150;2023-02-02T19:24:46;57.90;;;18.05;;
72761;SDS011;60886;55.034;73.150;2023-02-02T19:27:48;49.00;;;17.37;;
72761;SDS011;60886;55.034;73.150;2023-02-02T19:30:51;56.95;;;17.42;;
72761;SDS011;60886;55.034;73.150;2023-02-02T19:34:09;53.10;;;20.08;;
72761;SDS011;60886;55.034;73.150;2023-02-02T19:37:23;45.58;;;16.75;;
72761;SDS011;60886;55.034;73.150;2023-02-02T19:40:26;60.87;;;19.93;;
72761;SDS011;60886;55.034;73.150;2023-02-02T19:43:28;56.30;;;20.40;;
72761;SDS011;60886;55.034;73.150;2023-02-02T19:46:30;48.20;;;17.15;;
72761;SDS011;60886;55.034;73.150;2023-02-02T19:49:43;54.67;;;16.95;;
72761;SDS011;60886;55.034;73.150;2023-02-02T19:53:10;57.50;;;17.85;;
72761;SDS011;60886;55.034;73.150;2023-02-02T19:56:34;63.15;;;17.25;;
72761;SDS011;60886;55.034;73.150;2023-02-02T19:59:45;48.03;;;19.70;;
72761;SDS011;60886;55.034;73.150;2023-02-02T20:02:55;63.30;;;20.05;;
72761;SDS011;60886;55.034;73.150;2023-02-02T20:06:07;56.57;;;20.63;;
72761;SDS011;60886;55.034;73.150;2023-02-02T20:09:16;56.13;;;18.03;;
72761;SDS011;60886;55.034;73.150;2023-02-02T20:12:26;41.72;;;17.02;;
72761;SDS011;60886;55.034;73.150;2023-02-02T20:15:42;61.93;;;17.53;;
72761;SDS011;60886;55.034;73.150;2023-02-02T20:18:55;54.08;;;20.10;;
72761;SDS011;60886;55.034;73.150;2023-02-02T20:21:57;45.50;;;16.60;;
72761;SDS011;60886;55.034;73.150;2023-02-02T20:25:03;56.87;;;18.03;;
72761;SDS011;60886;55.034;73.150;2023-02-02T20:28:19;47.75;;;17.15;;
72761;SDS011;60886;55.034;73.150;2023-02-02T20:31:35;51.40;;;19.20;;
72761;SDS011;60886;55.034;73.150;2023-02-02T20:34:38;54.33;;;21.73;;
72761;SDS011;60886;55.034;73.150;2023-02-02T20:38:00;57.00;;;19.92;;
72761;SDS011;60886;55.034;73.150;2023-02-02T20:41:04;52.03;;;20.13;;
72761;SDS011;60886;55.034;73.150;2023-02-02T20:44:06;51.70;;;18.05;;